sensor_id;sensor_type;location;lat;lon;timestamp;P1;durP1;ratioP1;P2;durP2;ratioP2
30707;SDS011;17458;48.958;8.284;2023-02-28T00:02:06;21.53;;;11.90;;
30707;SDS011;17458;48.958;8.284;2023-02-28T00:04:50;5.90;;;5.37;;
30707;SDS011;17458;48.958;8.284;2023-02-28T00:07:36;26.13;;;13.77;;
30707;SDS011;17458;48.958;8.284;2023-02-28T00:10:22;24.60;;;17.00;;
30707;SDS011;17458;48.958;8.284;2023-02-28T00:13:08;19.20;;;10.70;;
30707;SDS011;17458;48.958;8.284;2023-02-28T00:15:59;33.77;;;19.07;;
30707;SDS011;17458;48.958;8.284;2023-02-28T00:18:46;11.33;;;8.27;;
30707;SDS011;17458;48.958;8.284;2023-02-28T00:21:31;36.33;;;17.53;;
30707;SDS011;17458;48.958;8.284;2023-02-28T00:24:15;16.33;;;10.47;;
30707;SDS011;17458;48.958;8.284;2023-02-28T00:26:59;18.60;;;12.37;;
30707;SDS011;17458;48.958;8.284;2023-02-28T00:29:43;12.57;;;9.63;;
30707;SDS011;17458;48.958;8.284;2023-02-28T00:32:28;16.73;;;11.07;;
30707;SDS011;17458;48.958;8.284;2023-02-28T00:35:13;9.47;;;7.00;;
30707;SDS011;17458;48.958;8.284;2023-02-28T00:37:59;6.77;;;5.47;;
30707;SDS011;17458;48.958;8.284;2023-02-28T00:40:45;18.37;;;11.63;;
30707;SDS011;17458;48.958;8.284;2023-02-28T00:43:29;10.30;;;7.00;;
30707;SDS011;17458;48.958;8.284;2023-02-28T00:46:13;8.47;;;6.73;;
30707;SDS011;17458;48.958;8.284;2023-02-28T00:48:56;12.87;;;8.33;;
30707;SDS011;17458;48.958;8.284;2023-02-28T00:51:41;8.10;;;6.20;;
30707;SDS011;17458;48.958;8.284;2023-02-28T00:54:25;15.17;;;9.57;;
30707;SDS011;17458;48.958;8.284;2023-02-28T00:57:09;17.00;;;10.83;;
30707;SDS011;17458;48.958;8.284;2023-02-28T00:59:53;10.83;;;7.60;;
30707;SDS011;17458;48.958;8.284;2023-02-28T01:02:40;7.30;;;6.60;;
30707;SDS011;17458;48.958;8.284;2023-02-28T01:05:25;13.07;;;8.90;;
30707;SDS011;17458;48.958;8.284;2023-02-28T01:08:09;16.67;;;10.67;;
30707;SDS011;17458;48.958;8.284;2023-02-28T01:10:54;10.03;;;7.83;;
30707;SDS011;17458;48.958;8.284;2023-02-28T01:13:40;8.37;;;6.87;;
30707;SDS011;17458;48.958;8.284;2023-02-28T01:16:25;8.90;;;5.23;;
30707;SDS011;17458;48.958;8.284;2023-02-28T01:19:10;7.80;;;6.10;;
30707;SDS011;17458;48.958;8.284;2023-02-28T01:21:55;8.53;;;7.63;;
30707;SDS011;17458;48.958;8.284;2023-02-28T01:24:39;9.70;;;7.40;;
30707;SDS011;17458;48.958;8.284;2023-02-28T01:27:23;6.50;;;5.77;;
30707;SDS011;17458;48.958;8.284;2023-02-28T01:30:08;11.63;;;8.03;;
30707;SDS011;17458;48.958;8.284;2023-02-28T01:32:52;11.93;;;8.17;;
30707;SDS011;17458;48.958;8.284;2023-02-28T01:35:37;7.90;;;7.07;;
30707;SDS011;17458;48.958;8.284;2023-02-28T01:38:21;9.33;;;6.53;;
30707;SDS011;17458;48.958;8.284;2023-02-28T01:41:06;7.70;;;6.20;;
30707;SDS011;17458;48.958;8.284;2023-02-28T01:46:47;16.20;;;8.60;;
30707;SDS011;17458;48.958;8.284;2023-02-28T01:49:34;10.37;;;6.30;;
30707;SDS011;17458;48.958;8.284;2023-02-28T01:52:18;5.90;;;5.30;;
30707;SDS011;17458;48.958;8.284;2023-02-28T01:55:04;8.30;;;6.83;;
30707;SDS011;17458;48.958;8.284;2023-02-28T01:57:51;17.53;;;7.93;;
30707;SDS011;17458;48.958;8.284;2023-02-28T02:00:38;11.37;;;6.23;;
30707;SDS011;17458;48.958;8.284;2023-02-28T02:03:24;6.30;;;5.67;;
30707;SDS011;17458;48.958;8.284;2023-02-28T02:06:08;10.13;;;5.83;;
30707;SDS011;17458;48.958;8.284;2023-02-28T02:08:52;14.70;;;6.37;;
30707;SDS011;17458;48.958;8.284;2023-02-28T02:11:36;7.17;;;5.40;;
30707;SDS011;17458;48.958;8.284;2023-02-28T02:14:37;6.20;;;5.70;;
30707;SDS011;17458;48.958;8.284;2023-02-28T02:17:34;5.50;;;5.00;;
30707;SDS011;17458;48.958;8.284;2023-02-28T02:32:31;7.97;;;5.87;;
30707;SDS011;17458;48.958;8.284;2023-02-28T02:35:23;5.60;;;5.10;;
30707;SDS011;17458;48.958;8.284;2023-02-28T02:48:19;6.33;;;5.83;;
30707;SDS011;17458;48.958;8.284;2023-02-28T02:51:10;7.93;;;6.03;;
30707;SDS011;17458;48.958;8.284;2023-02-28T02:57:15;7.07;;;6.37;;
30707;SDS011;17458;48.958;8.284;2023-02-28T03:00:10;6.37;;;5.77;;
30707;SDS011;17458;48.958;8.284;2023-02-28T03:02:56;8.77;;;5.97;;
30707;SDS011;17458;48.958;8.284;2023-02-28T03:05:48;7.73;;;4.80;;
30707;SDS011;17458;48.958;8.284;2023-02-28T03:08:36;7.90;;;6.03;;
30707;SDS011;17458;48.958;8.284;2023-02-28T03:11:21;7.90;;;5.27;;
30707;SDS011;17458;48.958;8.284;2023-02-28T03:14:12;6.00;;;5.50;;
30707;SDS011;17458;48.958;8.284;2023-02-28T03:17:17;6.00;;;5.33;;
30707;SDS011;17458;48.958;8.284;2023-02-28T03:20:27;6.23;;;5.73;;
30707;SDS011;17458;48.958;8.284;2023-02-28T03:23:23;6.93;;;6.17;;
30707;SDS011;17458;48.958;8.284;2023-02-28T03:26:24;12.00;;;6.10;;
30707;SDS011;17458;48.958;8.284;2023-02-28T03:29:13;6.63;;;5.60;;
30707;SDS011;17458;48.958;8.284;2023-02-28T03:32:27;6.03;;;5.43;;
30707;SDS011;17458;48.958;8.284;2023-02-28T03:35:16;6.10;;;5.57;;
30707;SDS011;17458;48.958;8.284;2023-02-28T03:38:08;6.63;;;6.03;;
30707;SDS011;17458;48.958;8.284;2023-02-28T03:41:13;6.53;;;5.77;;
30707;SDS011;17458;48.958;8.284;2023-02-28T03:44:11;11.73;;;6.60;;
30707;SDS011;17458;48.958;8.284;2023-02-28T03:47:08;6.60;;;6.00;;
30707;SDS011;17458;48.958;8.284;2023-02-28T03:50:07;7.33;;;5.93;;
30707;SDS011;17458;48.958;8.284;2023-02-28T03:52:55;6.70;;;5.20;;
30707;SDS011;17458;48.958;8.284;2023-02-28T03:55:46;6.93;;;6.27;;
30707;SDS011;17458;48.958;8.284;2023-02-28T03:58:45;6.30;;;5.70;;
30707;SDS011;17458;48.958;8.284;2023-02-28T04:01:41;6.27;;;5.73;;
30707;SDS011;17458;48.958;8.284;2023-02-28T04:04:27;6.50;;;6.00;;
30707;SDS011;17458;48.958;8.284;2023-02-28T04:07:12;6.50;;;5.90;;
30707;SDS011;17458;48.958;8.284;2023-02-28T04:09:57;7.53;;;6.23;;
30707;SDS011;17458;48.958;8.284;2023-02-28T04:12:42;8.63;;;6.57;;
30707;SDS011;17458;48.958;8.284;2023-02-28T04:15:25;5.73;;;5.23;;
30707;SDS011;17458;48.958;8.284;2023-02-28T04:18:10;8.17;;;6.33;;
30707;SDS011;17458;48.958;8.284;2023-02-28T04:20:54;6.77;;;5.83;;
30707;SDS011;17458;48.958;8.284;2023-02-28T04:23:39;11.43;;;6.43;;
30707;SDS011;17458;48.958;8.284;2023-02-28T04:26:23;7.93;;;6.47;;
30707;SDS011;17458;48.958;8.284;2023-02-28T04:29:07;6.73;;;6.13;;
30707;SDS011;17458;48.958;8.284;2023-02-28T04:31:51;7.10;;;6.50;;
30707;SDS011;17458;48.958;8.284;2023-02-28T04:34:41;5.90;;;5.27;;
30707;SDS011;17458;48.958;8.284;2023-02-28T04:37:25;7.77;;;6.90;;
30707;SDS011;17458;48.958;8.284;2023-02-28T04:40:12;7.00;;;6.30;;
30707;SDS011;17458;48.958;8.284;2023-02-28T04:42:56;7.33;;;6.23;;
30707;SDS011;17458;48.958;8.284;2023-02-28T04:45:40;8.90;;;6.97;;
30707;SDS011;17458;48.958;8.284;2023-02-28T04:48:24;7.33;;;6.50;;
30707;SDS011;17458;48.958;8.284;2023-02-28T04:51:11;7.10;;;6.40;;
30707;SDS011;17458;48.958;8.284;2023-02-28T04:53:58;8.10;;;6.27;;
30707;SDS011;17458;48.958;8.284;2023-02-28T04:56:42;7.47;;;5.53;;
30707;SDS011;17458;48.958;8.284;2023-02-28T04:59:26;12.70;;;6.63;;
30707;SDS011;17458;48.958;8.284;2023-02-28T05:02:10;8.53;;;7.50;;
30707;SDS011;17458;48.958;8.284;2023-02-28T05:04:54;6.93;;;5.50;;
30707;SDS011;17458;48.958;8.284;2023-02-28T05:07:38;7.53;;;6.23;;
30707;SDS011;17458;48.958;8.284;2023-02-28T05:10:22;7.67;;;6.40;;
30707;SDS011;17458;48.958;8.284;2023-02-28T05:13:06;7.33;;;6.57;;
30707;SDS011;17458;48.958;8.284;2023-02-28T05:15:53;8.53;;;7.40;;
30707;SDS011;17458;48.958;8.284;2023-02-28T05:18:37;7.20;;;6.33;;
30707;SDS011;17458;48.958;8.284;2023-02-28T05:24:16;10.87;;;7.10;;
30707;SDS011;17458;48.958;8.284;2023-02-28T05:27:06;12.97;;;7.27;;
30707;SDS011;17458;48.958;8.284;2023-02-28T05:29:49;8.80;;;7.87;;
30707;SDS011;17458;48.958;8.284;2023-02-28T05:32:33;7.13;;;6.40;;
30707;SDS011;17458;48.958;8.284;2023-02-28T05:35:17;11.13;;;7.03;;
30707;SDS011;17458;48.958;8.284;2023-02-28T05:38:02;10.20;;;7.20;;
30707;SDS011;17458;48.958;8.284;2023-02-28T05:40:45;11.03;;;8.57;;
30707;SDS011;17458;48.958;8.284;2023-02-28T05:43:29;11.90;;;8.57;;
30707;SDS011;17458;48.958;8.284;2023-02-28T05:46:13;10.63;;;8.80;;
30707;SDS011;17458;48.958;8.284;2023-02-28T05:48:58;13.47;;;8.07;;
30707;SDS011;17458;48.958;8.284;2023-02-28T05:51:43;11.17;;;7.53;;
30707;SDS011;17458;48.958;8.284;2023-02-28T05:54:27;14.40;;;9.33;;
30707;SDS011;17458;48.958;8.284;2023-02-28T05:57:11;11.43;;;8.23;;
30707;SDS011;17458;48.958;8.284;2023-02-28T05:59:55;12.13;;;9.77;;
30707;SDS011;17458;48.958;8.284;2023-02-28T06:02:39;13.73;;;9.93;;
30707;SDS011;17458;48.958;8.284;2023-02-28T06:05:24;16.53;;;10.47;;
30707;SDS011;17458;48.958;8.284;2023-02-28T06:08:07;9.07;;;7.23;;
30707;SDS011;17458;48.958;8.284;2023-02-28T06:10:51;9.23;;;7.40;;
30707;SDS011;17458;48.958;8.284;2023-02-28T06:13:36;8.50;;;7.60;;
30707;SDS011;17458;48.958;8.284;2023-02-28T06:16:20;8.70;;;7.47;;
30707;SDS011;17458;48.958;8.284;2023-02-28T06:19:05;8.53;;;7.70;;
30707;SDS011;17458;48.958;8.284;2023-02-28T06:21:49;12.27;;;8.33;;
30707;SDS011;17458;48.958;8.284;2023-02-28T06:24:35;9.73;;;6.70;;
30707;SDS011;17458;48.958;8.284;2023-02-28T06:27:19;8.03;;;7.07;;
30707;SDS011;17458;48.958;8.284;2023-02-28T06:30:04;10.63;;;7.47;;
30707;SDS011;17458;48.958;8.284;2023-02-28T06:32:48;8.43;;;7.37;;
30707;SDS011;17458;48.958;8.284;2023-02-28T06:35:33;9.23;;;7.60;;
30707;SDS011;17458;48.958;8.284;2023-02-28T06:38:17;9.10;;;7.47;;
30707;SDS011;17458;48.958;8.284;2023-02-28T06:41:02;12.87;;;8.33;;
30707;SDS011;17458;48.958;8.284;2023-02-28T06:43:47;9.53;;;8.20;;
30707;SDS011;17458;48.958;8.284;2023-02-28T06:46:31;8.93;;;7.63;;
30707;SDS011;17458;48.958;8.284;2023-02-28T06:49:16;8.83;;;7.93;;
30707;SDS011;17458;48.958;8.284;2023-02-28T06:52:01;10.03;;;7.07;;
30707;SDS011;17458;48.958;8.284;2023-02-28T06:54:46;7.50;;;6.70;;
30707;SDS011;17458;48.958;8.284;2023-02-28T06:57:30;15.57;;;8.87;;
30707;SDS011;17458;48.958;8.284;2023-02-28T07:00:16;13.47;;;9.60;;
30707;SDS011;17458;48.958;8.284;2023-02-28T07:03:00;11.17;;;8.37;;
30707;SDS011;17458;48.958;8.284;2023-02-28T07:05:44;29.00;;;12.27;;
30707;SDS011;17458;48.958;8.284;2023-02-28T07:08:29;13.10;;;9.40;;
30707;SDS011;17458;48.958;8.284;2023-02-28T07:11:13;14.50;;;9.30;;
30707;SDS011;17458;48.958;8.284;2023-02-28T07:13:57;14.13;;;8.83;;
30707;SDS011;17458;48.958;8.284;2023-02-28T07:16:41;10.20;;;8.27;;
30707;SDS011;17458;48.958;8.284;2023-02-28T07:19:25;9.13;;;7.17;;
30707;SDS011;17458;48.958;8.284;2023-02-28T07:22:09;12.73;;;8.47;;
30707;SDS011;17458;48.958;8.284;2023-02-28T07:24:53;12.00;;;9.30;;
30707;SDS011;17458;48.958;8.284;2023-02-28T07:27:37;11.93;;;8.23;;
30707;SDS011;17458;48.958;8.284;2023-02-28T07:30:21;11.37;;;8.43;;
30707;SDS011;17458;48.958;8.284;2023-02-28T07:33:05;10.53;;;7.97;;
30707;SDS011;17458;48.958;8.284;2023-02-28T07:35:49;8.23;;;6.87;;
30707;SDS011;17458;48.958;8.284;2023-02-28T07:38:34;12.27;;;7.63;;
30707;SDS011;17458;48.958;8.284;2023-02-28T07:41:20;10.10;;;6.77;;
30707;SDS011;17458;48.958;8.284;2023-02-28T07:44:05;8.63;;;6.67;;
30707;SDS011;17458;48.958;8.284;2023-02-28T07:46:49;8.33;;;7.30;;
30707;SDS011;17458;48.958;8.284;2023-02-28T07:49:34;13.77;;;8.30;;
30707;SDS011;17458;48.958;8.284;2023-02-28T07:52:21;10.37;;;7.87;;
30707;SDS011;17458;48.958;8.284;2023-02-28T07:55:10;9.10;;;8.13;;
30707;SDS011;17458;48.958;8.284;2023-02-28T07:57:54;8.20;;;7.17;;
30707;SDS011;17458;48.958;8.284;2023-02-28T08:00:39;8.63;;;7.47;;
30707;SDS011;17458;48.958;8.284;2023-02-28T08:03:24;7.93;;;7.13;;
30707;SDS011;17458;48.958;8.284;2023-02-28T08:06:15;7.50;;;6.80;;
30707;SDS011;17458;48.958;8.284;2023-02-28T08:09:03;9.87;;;7.77;;
30707;SDS011;17458;48.958;8.284;2023-02-28T08:11:47;8.27;;;7.33;;
30707;SDS011;17458;48.958;8.284;2023-02-28T08:14:31;11.07;;;7.87;;
30707;SDS011;17458;48.958;8.284;2023-02-28T08:17:15;10.30;;;7.77;;
30707;SDS011;17458;48.958;8.284;2023-02-28T08:19:59;13.13;;;7.60;;
30707;SDS011;17458;48.958;8.284;2023-02-28T08:22:43;9.50;;;7.73;;
30707;SDS011;17458;48.958;8.284;2023-02-28T08:25:27;14.30;;;8.10;;
30707;SDS011;17458;48.958;8.284;2023-02-28T08:28:11;7.70;;;7.00;;
30707;SDS011;17458;48.958;8.284;2023-02-28T08:30:55;11.20;;;7.83;;
30707;SDS011;17458;48.958;8.284;2023-02-28T08:33:39;8.93;;;8.03;;
30707;SDS011;17458;48.958;8.284;2023-02-28T08:36:25;8.73;;;7.87;;
30707;SDS011;17458;48.958;8.284;2023-02-28T08:39:12;8.40;;;6.80;;
30707;SDS011;17458;48.958;8.284;2023-02-28T08:41:57;9.93;;;8.40;;
30707;SDS011;17458;48.958;8.284;2023-02-28T08:44:40;10.97;;;9.47;;
30707;SDS011;17458;48.958;8.284;2023-02-28T08:47:24;11.20;;;8.57;;
30707;SDS011;17458;48.958;8.284;2023-02-28T08:50:08;11.37;;;8.00;;
30707;SDS011;17458;48.958;8.284;2023-02-28T08:52:53;10.53;;;7.17;;
30707;SDS011;17458;48.958;8.284;2023-02-28T08:55:37;11.17;;;8.63;;
30707;SDS011;17458;48.958;8.284;2023-02-28T08:58:21;8.73;;;7.63;;
30707;SDS011;17458;48.958;8.284;2023-02-28T09:01:09;10.67;;;8.40;;
30707;SDS011;17458;48.958;8.284;2023-02-28T09:03:55;10.10;;;7.57;;
30707;SDS011;17458;48.958;8.284;2023-02-28T09:06:40;9.67;;;8.13;;
30707;SDS011;17458;48.958;8.284;2023-02-28T09:09:24;8.83;;;7.97;;
30707;SDS011;17458;48.958;8.284;2023-02-28T09:12:08;11.40;;;8.77;;
30707;SDS011;17458;48.958;8.284;2023-02-28T09:14:52;13.13;;;8.87;;
30707;SDS011;17458;48.958;8.284;2023-02-28T09:17:40;12.13;;;8.57;;
30707;SDS011;17458;48.958;8.284;2023-02-28T09:20:24;11.13;;;7.83;;
30707;SDS011;17458;48.958;8.284;2023-02-28T09:23:08;9.20;;;8.20;;
30707;SDS011;17458;48.958;8.284;2023-02-28T09:25:53;11.17;;;8.67;;
30707;SDS011;17458;48.958;8.284;2023-02-28T09:28:38;10.60;;;8.47;;
30707;SDS011;17458;48.958;8.284;2023-02-28T09:31:23;10.47;;;8.60;;
30707;SDS011;17458;48.958;8.284;2023-02-28T09:34:09;13.57;;;9.10;;
30707;SDS011;17458;48.958;8.284;2023-02-28T09:36:53;12.07;;;8.33;;
30707;SDS011;17458;48.958;8.284;2023-02-28T09:39:38;14.37;;;9.07;;
30707;SDS011;17458;48.958;8.284;2023-02-28T09:42:29;9.97;;;8.37;;
30707;SDS011;17458;48.958;8.284;2023-02-28T09:48:12;11.63;;;8.13;;
30707;SDS011;17458;48.958;8.284;2023-02-28T09:54:15;13.33;;;9.23;;
30707;SDS011;17458;48.958;8.284;2023-02-28T10:06:22;10.52;;;8.00;;
30707;SDS011;17458;48.958;8.284;2023-02-28T10:09:30;10.25;;;8.82;;
30707;SDS011;17458;48.958;8.284;2023-02-28T10:12:16;11.00;;;7.85;;
30707;SDS011;17458;48.958;8.284;2023-02-28T10:15:01;9.63;;;7.88;;
30707;SDS011;17458;48.958;8.284;2023-02-28T10:17:47;11.10;;;9.38;;
30707;SDS011;17458;48.958;8.284;2023-02-28T10:20:39;12.27;;;8.55;;
30707;SDS011;17458;48.958;8.284;2023-02-28T10:23:34;12.13;;;8.70;;
30707;SDS011;17458;48.958;8.284;2023-02-28T10:26:20;13.60;;;8.75;;
30707;SDS011;17458;48.958;8.284;2023-02-28T10:29:07;13.52;;;8.77;;
30707;SDS011;17458;48.958;8.284;2023-02-28T10:31:52;13.43;;;9.30;;
30707;SDS011;17458;48.958;8.284;2023-02-28T10:34:36;13.93;;;9.85;;
30707;SDS011;17458;48.958;8.284;2023-02-28T10:37:20;16.40;;;9.33;;
30707;SDS011;17458;48.958;8.284;2023-02-28T10:40:05;21.27;;;13.18;;
30707;SDS011;17458;48.958;8.284;2023-02-28T10:45:52;12.90;;;8.73;;
30707;SDS011;17458;48.958;8.284;2023-02-28T10:49:13;10.48;;;8.57;;
30707;SDS011;17458;48.958;8.284;2023-02-28T10:52:01;12.63;;;9.43;;
30707;SDS011;17458;48.958;8.284;2023-02-28T10:54:45;9.73;;;8.57;;
30707;SDS011;17458;48.958;8.284;2023-02-28T10:57:31;17.52;;;9.50;;
30707;SDS011;17458;48.958;8.284;2023-02-28T11:00:17;12.95;;;9.50;;
30707;SDS011;17458;48.958;8.284;2023-02-28T11:03:06;17.33;;;9.35;;
30707;SDS011;17458;48.958;8.284;2023-02-28T11:06:08;10.70;;;8.17;;
30707;SDS011;17458;48.958;8.284;2023-02-28T11:09:06;11.77;;;9.15;;
30707;SDS011;17458;48.958;8.284;2023-02-28T11:15:06;11.55;;;8.70;;
30707;SDS011;17458;48.958;8.284;2023-02-28T11:20:56;15.50;;;11.05;;
30707;SDS011;17458;48.958;8.284;2023-02-28T11:23:43;15.20;;;10.73;;
30707;SDS011;17458;48.958;8.284;2023-02-28T11:26:37;13.02;;;9.63;;
30707;SDS011;17458;48.958;8.284;2023-02-28T11:29:24;11.20;;;9.05;;
30707;SDS011;17458;48.958;8.284;2023-02-28T11:32:16;11.30;;;8.40;;
30707;SDS011;17458;48.958;8.284;2023-02-28T11:35:10;14.77;;;9.80;;
30707;SDS011;17458;48.958;8.284;2023-02-28T11:38:09;16.15;;;9.70;;
30707;SDS011;17458;48.958;8.284;2023-02-28T11:46:59;14.13;;;10.68;;
30707;SDS011;17458;48.958;8.284;2023-02-28T11:50:02;16.83;;;11.25;;
30707;SDS011;17458;48.958;8.284;2023-02-28T11:52:56;13.98;;;10.13;;
30707;SDS011;17458;48.958;8.284;2023-02-28T11:55:52;19.10;;;9.90;;
30707;SDS011;17458;48.958;8.284;2023-02-28T12:01:53;19.48;;;10.57;;
30707;SDS011;17458;48.958;8.284;2023-02-28T12:11:37;17.58;;;9.20;;
30707;SDS011;17458;48.958;8.284;2023-02-28T12:21:00;11.88;;;9.05;;
30707;SDS011;17458;48.958;8.284;2023-02-28T12:26:41;12.95;;;9.18;;
30707;SDS011;17458;48.958;8.284;2023-02-28T12:29:32;13.15;;;9.07;;
30707;SDS011;17458;48.958;8.284;2023-02-28T12:32:30;17.58;;;12.43;;
30707;SDS011;17458;48.958;8.284;2023-02-28T12:35:22;12.05;;;8.25;;
30707;SDS011;17458;48.958;8.284;2023-02-28T12:38:14;25.75;;;13.38;;
30707;SDS011;17458;48.958;8.284;2023-02-28T12:41:04;15.23;;;9.85;;
30707;SDS011;17458;48.958;8.284;2023-02-28T12:44:09;14.10;;;8.98;;
30707;SDS011;17458;48.958;8.284;2023-02-28T12:47:00;13.43;;;9.43;;
30707;SDS011;17458;48.958;8.284;2023-02-28T12:49:59;10.82;;;8.52;;
30707;SDS011;17458;48.958;8.284;2023-02-28T12:52:58;11.32;;;9.23;;
30707;SDS011;17458;48.958;8.284;2023-02-28T12:55:54;10.85;;;8.80;;
30707;SDS011;17458;48.958;8.284;2023-02-28T12:58:47;13.60;;;8.43;;
30707;SDS011;17458;48.958;8.284;2023-02-28T13:01:36;14.25;;;8.93;;
30707;SDS011;17458;48.958;8.284;2023-02-28T13:10:55;13.25;;;9.13;;
30707;SDS011;17458;48.958;8.284;2023-02-28T13:13:40;11.40;;;9.10;;
30707;SDS011;17458;48.958;8.284;2023-02-28T13:16:38;11.93;;;9.05;;
30707;SDS011;17458;48.958;8.284;2023-02-28T13:19:33;12.75;;;8.48;;
30707;SDS011;17458;48.958;8.284;2023-02-28T13:22:35;10.65;;;8.48;;
30707;SDS011;17458;48.958;8.284;2023-02-28T13:28:56;8.93;;;7.97;;
30707;SDS011;17458;48.958;8.284;2023-02-28T13:34:49;14.43;;;9.75;;
30707;SDS011;17458;48.958;8.284;2023-02-28T13:37:50;10.88;;;7.47;;
30707;SDS011;17458;48.958;8.284;2023-02-28T13:41:31;14.52;;;9.60;;
30707;SDS011;17458;48.958;8.284;2023-02-28T13:44:23;10.50;;;8.20;;
30707;SDS011;17458;48.958;8.284;2023-02-28T13:47:19;11.90;;;9.23;;
30707;SDS011;17458;48.958;8.284;2023-02-28T13:54:06;13.80;;;10.48;;
30707;SDS011;17458;48.958;8.284;2023-02-28T13:57:09;16.08;;;9.23;;
30707;SDS011;17458;48.958;8.284;2023-02-28T14:03:07;14.10;;;9.73;;
30707;SDS011;17458;48.958;8.284;2023-02-28T14:11:55;11.93;;;8.85;;
30707;SDS011;17458;48.958;8.284;2023-02-28T14:17:24;10.75;;;9.15;;
30707;SDS011;17458;48.958;8.284;2023-02-28T14:20:15;13.82;;;9.07;;
30707;SDS011;17458;48.958;8.284;2023-02-28T14:23:06;11.90;;;10.57;;
30707;SDS011;17458;48.958;8.284;2023-02-28T14:26:07;10.90;;;8.95;;
30707;SDS011;17458;48.958;8.284;2023-02-28T14:29:12;13.93;;;9.18;;
30707;SDS011;17458;48.958;8.284;2023-02-28T14:38:21;14.88;;;10.23;;
30707;SDS011;17458;48.958;8.284;2023-02-28T14:41:29;22.60;;;11.15;;
30707;SDS011;17458;48.958;8.284;2023-02-28T14:44:22;22.33;;;12.07;;
30707;SDS011;17458;48.958;8.284;2023-02-28T14:47:14;17.48;;;11.18;;
30707;SDS011;17458;48.958;8.284;2023-02-28T14:49:59;11.95;;;9.68;;
30707;SDS011;17458;48.958;8.284;2023-02-28T14:52:45;12.25;;;9.95;;
30707;SDS011;17458;48.958;8.284;2023-02-28T14:55:30;14.85;;;9.68;;
30707;SDS011;17458;48.958;8.284;2023-02-28T14:58:25;17.40;;;9.77;;
30707;SDS011;17458;48.958;8.284;2023-02-28T15:01:09;20.05;;;9.50;;
30707;SDS011;17458;48.958;8.284;2023-02-28T15:04:02;17.13;;;9.90;;
30707;SDS011;17458;48.958;8.284;2023-02-28T15:07:06;10.65;;;8.88;;
30707;SDS011;17458;48.958;8.284;2023-02-28T15:10:06;13.73;;;11.00;;
30707;SDS011;17458;48.958;8.284;2023-02-28T15:12:55;11.35;;;10.23;;
30707;SDS011;17458;48.958;8.284;2023-02-28T15:21:34;13.27;;;10.85;;
30707;SDS011;17458;48.958;8.284;2023-02-28T15:24:30;13.00;;;10.75;;
30707;SDS011;17458;48.958;8.284;2023-02-28T15:27:21;12.07;;;10.05;;
30707;SDS011;17458;48.958;8.284;2023-02-28T15:30:12;13.23;;;11.05;;
30707;SDS011;17458;48.958;8.284;2023-02-28T15:33:15;13.18;;;10.07;;
30707;SDS011;17458;48.958;8.284;2023-02-28T15:36:05;14.25;;;10.05;;
30707;SDS011;17458;48.958;8.284;2023-02-28T15:38:51;17.63;;;13.50;;
30707;SDS011;17458;48.958;8.284;2023-02-28T15:41:36;17.92;;;11.18;;
30707;SDS011;17458;48.958;8.284;2023-02-28T15:47:19;11.48;;;9.13;;
30707;SDS011;17458;48.958;8.284;2023-02-28T15:50:06;14.05;;;10.23;;
30707;SDS011;17458;48.958;8.284;2023-02-28T15:52:57;15.50;;;10.52;;
30707;SDS011;17458;48.958;8.284;2023-02-28T15:55:41;13.93;;;10.80;;
30707;SDS011;17458;48.958;8.284;2023-02-28T15:58:29;16.92;;;11.55;;
30707;SDS011;17458;48.958;8.284;2023-02-28T16:01:17;13.00;;;11.15;;
30707;SDS011;17458;48.958;8.284;2023-02-28T16:04:05;16.50;;;10.52;;
30707;SDS011;17458;48.958;8.284;2023-02-28T16:09:43;11.52;;;9.45;;
30707;SDS011;17458;48.958;8.284;2023-02-28T16:12:28;22.08;;;10.60;;
30707;SDS011;17458;48.958;8.284;2023-02-28T16:15:22;16.55;;;10.35;;
30707;SDS011;17458;48.958;8.284;2023-02-28T16:18:11;14.60;;;10.45;;
30707;SDS011;17458;48.958;8.284;2023-02-28T16:20:56;12.77;;;9.90;;
30707;SDS011;17458;48.958;8.284;2023-02-28T16:23:43;12.25;;;9.75;;
30707;SDS011;17458;48.958;8.284;2023-02-28T16:26:27;15.70;;;11.60;;
30707;SDS011;17458;48.958;8.284;2023-02-28T16:29:13;13.80;;;10.68;;
30707;SDS011;17458;48.958;8.284;2023-02-28T16:32:18;15.18;;;11.02;;
30707;SDS011;17458;48.958;8.284;2023-02-28T16:35:02;15.27;;;11.18;;
30707;SDS011;17458;48.958;8.284;2023-02-28T16:37:47;13.00;;;9.75;;
30707;SDS011;17458;48.958;8.284;2023-02-28T16:40:34;12.98;;;9.70;;
30707;SDS011;17458;48.958;8.284;2023-02-28T16:43:20;12.82;;;10.23;;
30707;SDS011;17458;48.958;8.284;2023-02-28T16:46:09;14.38;;;10.07;;
30707;SDS011;17458;48.958;8.284;2023-02-28T16:48:56;17.17;;;10.85;;
30707;SDS011;17458;48.958;8.284;2023-02-28T16:51:40;16.50;;;10.48;;
30707;SDS011;17458;48.958;8.284;2023-02-28T16:54:24;14.38;;;10.85;;
30707;SDS011;17458;48.958;8.284;2023-02-28T16:57:26;16.42;;;10.38;;
30707;SDS011;17458;48.958;8.284;2023-02-28T17:00:11;16.48;;;11.48;;
30707;SDS011;17458;48.958;8.284;2023-02-28T17:02:56;13.55;;;9.65;;
30707;SDS011;17458;48.958;8.284;2023-02-28T17:05:42;16.38;;;11.05;;
30707;SDS011;17458;48.958;8.284;2023-02-28T17:08:26;15.55;;;13.13;;
30707;SDS011;17458;48.958;8.284;2023-02-28T17:11:12;16.65;;;10.82;;
30707;SDS011;17458;48.958;8.284;2023-02-28T17:13:56;18.38;;;11.70;;
30707;SDS011;17458;48.958;8.284;2023-02-28T17:16:41;17.00;;;11.85;;
30707;SDS011;17458;48.958;8.284;2023-02-28T17:19:26;12.68;;;10.27;;
30707;SDS011;17458;48.958;8.284;2023-02-28T17:22:11;22.33;;;11.32;;
30707;SDS011;17458;48.958;8.284;2023-02-28T17:24:55;15.48;;;11.18;;
30707;SDS011;17458;48.958;8.284;2023-02-28T17:27:41;16.33;;;11.35;;
30707;SDS011;17458;48.958;8.284;2023-02-28T17:30:25;16.35;;;10.45;;
30707;SDS011;17458;48.958;8.284;2023-02-28T17:33:11;15.65;;;11.00;;
30707;SDS011;17458;48.958;8.284;2023-02-28T17:35:55;13.18;;;9.98;;
30707;SDS011;17458;48.958;8.284;2023-02-28T17:38:39;13.63;;;10.02;;
30707;SDS011;17458;48.958;8.284;2023-02-28T17:41:22;15.88;;;11.35;;
30707;SDS011;17458;48.958;8.284;2023-02-28T17:44:07;14.50;;;10.73;;
30707;SDS011;17458;48.958;8.284;2023-02-28T17:46:52;19.00;;;11.02;;
30707;SDS011;17458;48.958;8.284;2023-02-28T17:49:37;15.18;;;10.60;;
30707;SDS011;17458;48.958;8.284;2023-02-28T17:52:21;19.50;;;10.45;;
30707;SDS011;17458;48.958;8.284;2023-02-28T17:55:06;21.13;;;13.55;;
30707;SDS011;17458;48.958;8.284;2023-02-28T17:57:51;16.13;;;11.35;;
30707;SDS011;17458;48.958;8.284;2023-02-28T18:00:35;19.80;;;11.70;;
30707;SDS011;17458;48.958;8.284;2023-02-28T18:03:22;15.63;;;10.90;;
30707;SDS011;17458;48.958;8.284;2023-02-28T18:06:13;27.75;;;13.75;;
30707;SDS011;17458;48.958;8.284;2023-02-28T18:09:00;17.60;;;13.25;;
30707;SDS011;17458;48.958;8.284;2023-02-28T18:11:45;13.43;;;9.82;;
30707;SDS011;17458;48.958;8.284;2023-02-28T18:14:28;15.43;;;8.63;;
30707;SDS011;17458;48.958;8.284;2023-02-28T18:17:13;19.77;;;13.20;;
30707;SDS011;17458;48.958;8.284;2023-02-28T18:19:57;14.23;;;11.60;;
30707;SDS011;17458;48.958;8.284;2023-02-28T18:22:42;15.20;;;11.70;;
30707;SDS011;17458;48.958;8.284;2023-02-28T18:25:26;13.80;;;9.90;;
30707;SDS011;17458;48.958;8.284;2023-02-28T18:28:11;23.33;;;14.75;;
30707;SDS011;17458;48.958;8.284;2023-02-28T18:30:55;17.45;;;11.88;;
30707;SDS011;17458;48.958;8.284;2023-02-28T18:33:38;14.82;;;11.63;;
30707;SDS011;17458;48.958;8.284;2023-02-28T18:36:23;14.18;;;10.88;;
30707;SDS011;17458;48.958;8.284;2023-02-28T18:39:10;15.23;;;11.38;;
30707;SDS011;17458;48.958;8.284;2023-02-28T18:41:54;22.52;;;13.68;;
30707;SDS011;17458;48.958;8.284;2023-02-28T18:44:38;17.90;;;13.10;;
30707;SDS011;17458;48.958;8.284;2023-02-28T18:47:22;16.80;;;11.40;;